Terminal Aerodrome Forecast
Issued by NWS

Current Version | Previous Version | Graphics & Text | Print | Product List | Glossary On
Versions: 1 2 3 4 5 6 7 8 9 10 11 12 13 14 15 16 17 18 19 20 21 22 23 24 25 26 27 28 29 30 31 32 33 34 35 36 37 38 39 40 41 42 43
000
FTUS41 KRNK 030239 AAA
TAFLWB
TAF AMD
KLWB 030239Z 0303/0324 00000KT 5SM BR OVC050
     FM030800 VRB03KT 2SM BR BKN025
     FM031400 22003KT 6SM BR BKN025
     FM031800 20003KT 6SM -SHRA BR BKN025
     FM032200 23004KT 6SM -SHRA VCTS BKN025CB=

USA.gov is the U.S. government's official web portal to all federal, state and local government web resources and services.